createdAt,value
2023-04-08T00:00:50.877Z,101.786
2023-04-08T00:01:50.957Z,101.857
2023-04-08T00:02:50.978Z,101.786
2023-04-08T00:03:51.070Z,101.714
2023-04-08T00:04:51.065Z,101.786
2023-04-08T00:05:51.020Z,101.786
2023-04-08T00:06:51.057Z,101.786
2023-04-08T00:07:51.094Z,101.857
2023-04-08T00:08:51.270Z,101.714
2023-04-08T00:09:51.175Z,101.786
2023-04-08T00:10:51.211Z,101.786
2023-04-08T00:11:51.248Z,101.786
2023-04-08T00:12:51.293Z,101.786
2023-04-08T00:13:51.330Z,101.714
2023-04-08T00:14:51.365Z,101.714
2023-04-08T00:15:51.398Z,101.714
2023-04-08T00:16:51.520Z,101.714
2023-04-08T00:17:51.506Z,101.714
2023-04-08T00:18:51.908Z,101.714
2023-04-08T00:19:51.577Z,101.857
2023-04-08T00:20:51.615Z,101.786
2023-04-08T00:21:51.663Z,101.786
2023-04-08T00:22:51.704Z,101.786
2023-04-08T00:23:51.741Z,101.714
2023-04-08T00:24:51.779Z,101.857
2023-04-08T00:25:51.827Z,101.786
2023-04-08T00:26:51.849Z,101.857
2023-04-08T00:27:51.892Z,101.786
2023-04-08T00:28:52.223Z,101.714
2023-04-08T00:29:51.967Z,101.786
2023-04-08T00:30:52.027Z,101.714
2023-04-08T00:31:52.057Z,101.786
2023-04-08T00:32:52.123Z,101.714
2023-04-08T00:33:52.123Z,101.714
2023-04-08T00:34:52.157Z,101.714
2023-04-08T00:35:52.260Z,101.714
2023-04-08T00:36:52.235Z,101.786
2023-04-08T00:37:52.278Z,101.786
2023-04-08T00:38:52.373Z,101.714
2023-04-08T00:39:52.356Z,101.786
2023-04-08T00:40:52.413Z,101.857
2023-04-08T00:41:52.431Z,101.714
2023-04-08T00:42:52.489Z,101.714
2023-04-08T00:43:52.513Z,101.786
2023-04-08T00:44:52.544Z,101.643
2023-04-08T00:45:52.603Z,101.786
2023-04-08T00:46:52.627Z,101.786
2023-04-08T00:47:53.098Z,101.786
2023-04-08T00:48:52.887Z,101.786
2023-04-08T00:49:52.763Z,101.714
2023-04-08T00:50:52.777Z,101.786
2023-04-08T00:51:52.820Z,101.714
2023-04-08T00:52:52.875Z,101.714
2023-04-08T00:53:52.900Z,101.786
2023-04-08T00:54:52.949Z,101.714
2023-04-08T00:55:52.983Z,101.857
2023-04-08T00:56:53.039Z,101.714
2023-04-08T00:57:53.066Z,101.714
2023-04-08T00:58:53.112Z,101.714
2023-04-08T00:59:53.152Z,101.714
2023-04-08T01:00:53.180Z,101.714
2023-04-08T01:01:53.316Z,101.714
2023-04-08T01:02:53.341Z,101.714
2023-04-08T01:03:53.409Z,101.714
2023-04-08T01:04:53.353Z,101.714
2023-04-08T01:05:53.383Z,101.714
2023-04-08T01:06:53.429Z,101.714
2023-04-08T01:07:53.492Z,101.714
2023-04-08T01:08:53.511Z,101.786
2023-04-08T01:09:53.556Z,101.714
2023-04-08T01:10:53.584Z,101.643
2023-04-08T01:11:53.622Z,101.643
2023-04-08T01:12:53.668Z,101.643
2023-04-08T01:13:53.696Z,101.714
2023-04-08T01:14:53.741Z,101.857
2023-04-08T01:15:53.868Z,101.857
2023-04-08T01:16:53.830Z,101.714
2023-04-08T01:17:53.901Z,101.714
2023-04-08T01:18:53.893Z,101.643
2023-04-08T01:19:53.924Z,101.786
2023-04-08T01:20:53.959Z,101.714
2023-04-08T01:21:54.002Z,101.714
2023-04-08T01:22:54.040Z,101.714
2023-04-08T01:23:54.080Z,101.643
2023-04-08T01:24:54.111Z,101.857
2023-04-08T01:25:54.171Z,101.714
2023-04-08T01:26:54.188Z,101.714
2023-04-08T01:27:54.231Z,101.857
2023-04-08T01:28:54.277Z,101.857
2023-04-08T01:29:54.334Z,101.643
2023-04-08T01:30:54.394Z,101.714
2023-04-08T01:31:54.395Z,101.643
2023-04-08T01:32:54.511Z,101.714
2023-04-08T01:33:54.476Z,101.714
2023-04-08T01:34:54.510Z,101.786
2023-04-08T01:35:54.580Z,101.714
2023-04-08T01:36:54.896Z,101.714
2023-04-08T01:37:54.630Z,101.714
2023-04-08T01:38:54.675Z,101.714
2023-04-08T01:39:54.716Z,101.857
2023-04-08T01:40:54.749Z,101.643
2023-04-08T01:41:54.797Z,101.857
2023-04-08T01:42:54.831Z,101.857
2023-04-08T01:43:54.903Z,101.786
2023-04-08T01:44:54.906Z,101.643
2023-04-08T01:45:54.955Z,101.786
2023-04-08T01:46:55.065Z,101.857
2023-04-08T01:47:55.058Z,101.643
2023-04-08T01:48:55.048Z,101.857
2023-04-08T01:49:55.086Z,101.714
2023-04-08T01:50:55.124Z,101.714
2023-04-08T01:51:55.160Z,101.643
2023-04-08T01:52:55.209Z,101.857
2023-04-08T01:53:55.240Z,101.857
2023-04-08T01:54:55.275Z,101.786
2023-04-08T01:55:55.327Z,101.714
2023-04-08T01:56:55.358Z,101.714
2023-04-08T01:57:55.390Z,101.714
2023-04-08T01:58:55.439Z,101.929
2023-04-08T01:59:55.463Z,101.857
2023-04-08T02:00:55.498Z,101.857
2023-04-08T02:01:55.590Z,101.786
2023-04-08T02:02:55.763Z,101.786
2023-04-08T02:03:55.720Z,101.714
2023-04-08T02:04:55.664Z,101.786
2023-04-08T02:05:55.712Z,101.857
2023-04-08T02:06:55.745Z,102
2023-04-08T02:07:55.817Z,101.857
2023-04-08T02:08:55.814Z,101.857
2023-04-08T02:09:55.858Z,101.714
2023-04-08T02:10:55.910Z,101.857
2023-04-08T02:11:55.947Z,101.643
2023-04-08T02:12:55.984Z,101.714
2023-04-08T02:13:56.008Z,101.857
2023-04-08T02:14:56.051Z,101.786
2023-04-08T02:15:56.105Z,101.643
2023-04-08T02:16:56.137Z,101.786
2023-04-08T02:17:56.246Z,101.929
2023-04-08T02:18:56.205Z,102
2023-04-08T02:19:56.246Z,101.786
2023-04-08T02:20:56.281Z,101.786
2023-04-08T02:21:56.330Z,101.786
2023-04-08T02:22:56.364Z,101.714
2023-04-08T02:23:56.398Z,101.714
2023-04-08T02:24:56.435Z,101.857
2023-04-08T02:25:56.476Z,101.857
2023-04-08T02:26:56.523Z,101.929
2023-04-08T02:27:56.552Z,101.857
2023-04-08T02:28:56.613Z,101.714
2023-04-08T02:29:56.646Z,102
2023-04-08T02:30:56.710Z,101.714
2023-04-08T02:31:56.734Z,101.857
2023-04-08T02:32:56.830Z,101.714
2023-04-08T02:33:56.810Z,101.857
2023-04-08T02:34:56.830Z,101.857
2023-04-08T02:35:56.888Z,101.714
2023-04-08T02:36:56.909Z,101.857
2023-04-08T02:37:56.951Z,101.857
2023-04-08T02:38:56.994Z,101.857
2023-04-08T02:39:57.034Z,101.857
2023-04-08T02:40:57.071Z,101.857
2023-04-08T02:41:57.105Z,101.929
2023-04-08T02:42:57.145Z,101.857
2023-04-08T02:43:57.177Z,101.929
2023-04-08T02:44:57.225Z,101.857
2023-04-08T02:45:57.278Z,102
2023-04-08T02:46:57.298Z,101.786
2023-04-08T02:47:57.364Z,101.786
2023-04-08T02:48:57.369Z,101.857
2023-04-08T02:49:57.411Z,101.786
2023-04-08T02:50:57.486Z,101.786
2023-04-08T02:51:57.477Z,101.929
2023-04-08T02:52:57.539Z,101.786
2023-04-08T02:53:57.567Z,101.929
2023-04-08T02:54:57.596Z,101.786
2023-04-08T02:55:57.627Z,101.929
2023-04-08T02:56:57.670Z,101.929
2023-04-08T02:57:57.696Z,101.929
2023-04-08T02:58:57.749Z,101.786
2023-04-08T02:59:57.775Z,101.857
2023-04-08T03:00:57.886Z,101.786
2023-04-08T03:01:57.874Z,101.929
2023-04-08T03:02:58.078Z,101.786
2023-04-08T03:03:57.948Z,101.929
2023-04-08T03:04:57.977Z,101.857
2023-04-08T03:05:58.026Z,101.786
2023-04-08T03:06:58.063Z,101.714
2023-04-08T03:07:58.101Z,101.857
2023-04-08T03:08:58.134Z,101.857
2023-04-08T03:09:58.187Z,101.643
2023-04-08T03:10:58.213Z,101.857
2023-04-08T03:11:58.239Z,101.786
2023-04-08T03:12:58.287Z,101.786
2023-04-08T03:13:58.316Z,101.857
2023-04-08T03:14:58.353Z,101.857
2023-04-08T03:15:58.393Z,101.857
2023-04-08T03:16:58.472Z,101.786
2023-04-08T03:17:58.515Z,101.857
2023-04-08T03:18:58.511Z,101.786
2023-04-08T03:19:58.545Z,101.929
2023-04-08T03:20:58.575Z,101.786
2023-04-08T03:21:58.619Z,101.857
2023-04-08T03:22:58.659Z,101.786
2023-04-08T03:23:58.686Z,101.857
2023-04-08T03:24:58.726Z,101.929
2023-04-08T03:25:58.773Z,101.929
2023-04-08T03:26:58.794Z,101.929
2023-04-08T03:27:58.845Z,101.929
2023-04-08T03:28:58.883Z,101.786
2023-04-08T03:29:58.967Z,101.857
2023-04-08T03:30:58.969Z,101.857
2023-04-08T03:31:59.022Z,101.857
2023-04-08T03:32:59.076Z,101.786
2023-04-08T03:33:59.062Z,101.929
2023-04-08T03:34:59.105Z,101.786
2023-04-08T03:35:59.204Z,101.786
2023-04-08T03:36:59.165Z,101.929
2023-04-08T03:37:59.206Z,101.929
2023-04-08T03:38:59.257Z,101.857
2023-04-08T03:39:59.289Z,101.929
2023-04-08T03:40:59.331Z,101.929
2023-04-08T03:41:59.369Z,101.929
2023-04-08T03:42:59.399Z,101.786
2023-04-08T03:43:59.441Z,101.929
2023-04-08T03:44:59.470Z,101.857
2023-04-08T03:45:59.591Z,101.929
2023-04-08T03:46:59.558Z,101.786
2023-04-08T03:47:59.645Z,101.643
2023-04-08T03:48:59.651Z,101.786
2023-04-08T03:49:59.673Z,101.929
2023-04-08T03:50:59.728Z,101.929
2023-04-08T03:51:59.755Z,101.929
2023-04-08T03:52:59.800Z,101.786
2023-04-08T03:53:59.832Z,101.786
2023-04-08T03:54:59.872Z,101.929
2023-04-08T03:55:59.894Z,101.786
2023-04-08T03:56:59.934Z,101.786
2023-04-08T03:57:59.966Z,101.786
2023-04-08T03:59:00.018Z,101.929
2023-04-08T04:00:00.060Z,101.786
2023-04-08T04:01:00.133Z,101.857
2023-04-08T04:02:00.164Z,101.929
2023-04-08T04:03:00.254Z,101.929
2023-04-08T04:04:00.393Z,101.929
2023-04-08T04:05:00.432Z,101.929
2023-04-08T04:06:00.280Z,101.857
2023-04-08T04:07:00.320Z,101.929
2023-04-08T04:08:00.366Z,101.786
2023-04-08T04:09:00.396Z,101.786
2023-04-08T04:10:00.445Z,102
2023-04-08T04:11:00.474Z,101.929
2023-04-08T04:12:00.514Z,101.929
2023-04-08T04:13:00.575Z,102
2023-04-08T04:14:00.589Z,101.857
2023-04-08T04:15:00.631Z,101.929
2023-04-08T04:16:00.682Z,101.929
2023-04-08T04:17:00.714Z,101.929
2023-04-08T04:18:00.775Z,101.929
2023-04-08T04:19:00.841Z,101.786
2023-04-08T04:20:00.840Z,101.929
2023-04-08T04:21:00.885Z,101.929
2023-04-08T04:22:00.919Z,101.857
2023-04-08T04:23:00.960Z,101.929
2023-04-08T04:24:01.003Z,101.929
2023-04-08T04:25:01.035Z,101.929
2023-04-08T04:26:01.079Z,101.929
2023-04-08T04:27:01.100Z,101.786
2023-04-08T04:28:01.148Z,101.857
2023-04-08T04:29:01.203Z,101.929
2023-04-08T04:30:01.213Z,101.929
2023-04-08T04:31:01.294Z,101.929
2023-04-08T04:32:01.286Z,101.786
2023-04-08T04:33:01.413Z,101.929
2023-04-08T04:34:01.395Z,101.929
2023-04-08T04:35:01.436Z,101.929
2023-04-08T04:36:01.532Z,101.786
2023-04-08T04:37:01.479Z,101.929
2023-04-08T04:38:01.568Z,102
2023-04-08T04:39:01.549Z,101.929
2023-04-08T04:40:01.616Z,102
2023-04-08T04:41:01.711Z,101.929
2023-04-08T04:42:01.676Z,101.929
2023-04-08T04:43:01.715Z,101.929
2023-04-08T04:44:01.739Z,101.929
2023-04-08T04:45:01.766Z,101.929
2023-04-08T04:46:01.838Z,101.929
2023-04-08T04:47:01.842Z,101.786
2023-04-08T04:48:01.927Z,101.786
2023-04-08T04:49:01.920Z,101.929
2023-04-08T04:50:01.953Z,101.857
2023-04-08T04:51:01.992Z,101.929
2023-04-08T04:52:02.047Z,101.929
2023-04-08T04:53:02.071Z,102
2023-04-08T04:54:02.136Z,101.857
2023-04-08T04:55:02.156Z,101.714
2023-04-08T04:56:02.464Z,101.857
2023-04-08T04:57:02.214Z,101.857
2023-04-08T04:58:02.260Z,101.929
2023-04-08T04:59:02.296Z,101.929
2023-04-08T05:00:04.689Z,102.071
2023-04-08T05:01:02.363Z,101.857
2023-04-08T05:02:02.478Z,102
2023-04-08T05:03:02.585Z,101.929
2023-04-08T05:04:02.486Z,102
2023-04-08T05:05:02.589Z,101.857
2023-04-08T05:06:02.573Z,102
2023-04-08T05:07:02.606Z,102
2023-04-08T05:08:02.690Z,101.857
2023-04-08T05:09:02.686Z,102.071
2023-04-08T05:10:02.718Z,101.857
2023-04-08T05:11:02.761Z,102
2023-04-08T05:12:02.804Z,101.857
2023-04-08T05:13:02.837Z,101.929
2023-04-08T05:14:02.884Z,101.857
2023-04-08T05:15:02.918Z,101.929
2023-04-08T05:16:02.976Z,101.857
2023-04-08T05:17:02.992Z,101.929
2023-04-08T05:18:03.138Z,102
2023-04-08T05:19:03.059Z,102.071
2023-04-08T05:20:03.100Z,102
2023-04-08T05:21:03.141Z,102
2023-04-08T05:22:03.173Z,101.929
2023-04-08T05:23:03.211Z,102
2023-04-08T05:24:03.261Z,101.857
2023-04-08T05:25:03.285Z,102.071
2023-04-08T05:26:03.325Z,101.929
2023-04-08T05:27:03.369Z,101.857
2023-04-08T05:28:03.420Z,101.929
2023-04-08T05:29:03.467Z,101.929
2023-04-08T05:30:03.511Z,101.929
2023-04-08T05:31:03.600Z,101.929
2023-04-08T05:32:03.574Z,102
2023-04-08T05:33:03.624Z,102
2023-04-08T05:34:03.651Z,102.071
2023-04-08T05:35:03.711Z,102
2023-04-08T05:36:03.749Z,101.857
2023-04-08T05:37:03.772Z,102.071
2023-04-08T05:38:03.802Z,102.071
2023-04-08T05:39:03.839Z,101.857
2023-04-08T05:40:03.898Z,101.857
2023-04-08T05:41:03.917Z,102
2023-04-08T05:42:03.956Z,102
2023-04-08T05:43:03.997Z,101.857
2023-04-08T05:44:04.033Z,102.071
2023-04-08T05:45:04.094Z,102
2023-04-08T05:46:04.109Z,101.929
2023-04-08T05:47:04.241Z,102.143
2023-04-08T05:48:04.234Z,101.929
2023-04-08T05:49:04.232Z,102.071
2023-04-08T05:50:04.275Z,102.071
2023-04-08T05:51:04.302Z,102
2023-04-08T05:52:04.358Z,102
2023-04-08T05:53:04.371Z,102.071
2023-04-08T05:54:04.406Z,102.143
2023-04-08T05:55:04.449Z,102
2023-04-08T05:56:04.481Z,101.929
2023-04-08T05:57:04.517Z,102.143
2023-04-08T05:58:04.552Z,101.857
2023-04-08T05:59:04.601Z,101.929
2023-04-08T06:00:04.630Z,101.929
2023-04-08T06:01:04.674Z,102.071
2023-04-08T06:02:04.887Z,101.929
2023-04-08T06:03:05.110Z,101.857
2023-04-08T06:04:04.946Z,102.071
2023-04-08T06:05:04.864Z,102.071
2023-04-08T06:06:04.848Z,102
2023-04-08T06:07:04.882Z,102.071
2023-04-08T06:08:04.927Z,101.786
2023-04-08T06:09:04.960Z,102.071
2023-04-08T06:10:04.996Z,101.786
2023-04-08T06:11:05.029Z,102
2023-04-08T06:12:05.077Z,102
2023-04-08T06:13:05.124Z,102.143
2023-04-08T06:14:05.162Z,102
2023-04-08T06:15:05.198Z,102.143
2023-04-08T06:16:05.244Z,102.071
2023-04-08T06:17:05.299Z,102.071
2023-04-08T06:18:05.319Z,101.929
2023-04-08T06:19:05.353Z,101.929
2023-04-08T06:20:05.388Z,101.929
2023-04-08T06:21:05.421Z,102.143
2023-04-08T06:22:05.459Z,102
2023-04-08T06:23:05.501Z,102.143
2023-04-08T06:24:05.532Z,102
2023-04-08T06:25:05.588Z,102.143
2023-04-08T06:26:05.623Z,102
2023-04-08T06:27:05.653Z,102
2023-04-08T06:28:05.882Z,102
2023-04-08T06:29:05.734Z,101.857
2023-04-08T06:30:05.777Z,101.929
2023-04-08T06:31:05.820Z,101.929
2023-04-08T06:32:05.873Z,102
2023-04-08T06:33:05.946Z,101.857
2023-04-08T06:34:05.926Z,102.143
2023-04-08T06:35:05.955Z,102
2023-04-08T06:36:06.026Z,102
2023-04-08T06:37:06.018Z,102.071
2023-04-08T06:38:06.066Z,101.929
2023-04-08T06:39:06.090Z,101.929
2023-04-08T06:40:06.137Z,101.929
2023-04-08T06:41:06.158Z,102.071
2023-04-08T06:42:06.198Z,102.071
2023-04-08T06:43:06.225Z,102
2023-04-08T06:44:06.273Z,101.929
2023-04-08T06:45:06.310Z,102.071
2023-04-08T06:46:06.363Z,101.929
2023-04-08T06:47:06.372Z,101.929
2023-04-08T06:48:06.454Z,101.929
2023-04-08T06:49:06.455Z,101.929
2023-04-08T06:50:06.498Z,101.929
2023-04-08T06:51:06.527Z,102.214
2023-04-08T06:52:06.559Z,102.071
2023-04-08T06:53:06.604Z,101.929
2023-04-08T06:54:06.658Z,101.929
2023-04-08T06:55:06.666Z,102
2023-04-08T06:56:06.967Z,102
2023-04-08T06:57:06.758Z,102
2023-04-08T06:58:06.797Z,102.143
2023-04-08T06:59:06.831Z,102.071
2023-04-08T07:00:06.867Z,102
2023-04-08T07:01:06.957Z,102.071
2023-04-08T07:02:06.994Z,102
2023-04-08T07:03:07.103Z,102.071
2023-04-08T07:04:07.101Z,102
2023-04-08T07:05:07.072Z,102.071
2023-04-08T07:06:07.104Z,102
2023-04-08T07:07:07.141Z,102.214
2023-04-08T07:08:07.177Z,102.071
2023-04-08T07:09:07.221Z,102
2023-04-08T07:10:10.373Z,102.214
2023-04-08T07:11:07.296Z,102.071
2023-04-08T07:12:07.327Z,102.071
2023-04-08T07:13:07.376Z,102.071
2023-04-08T07:14:07.422Z,102.071
2023-04-08T07:15:07.462Z,102.143
2023-04-08T07:16:07.494Z,102.071
2023-04-08T07:17:07.629Z,102.143
2023-04-08T07:18:07.573Z,102.143
2023-04-08T07:19:07.607Z,102.143
2023-04-08T07:20:07.655Z,102.214
2023-04-08T07:21:07.688Z,102.071
2023-04-08T07:22:07.718Z,102.071
2023-04-08T07:23:07.756Z,102.143
2023-04-08T07:24:07.798Z,102.071
2023-04-08T07:25:07.858Z,102.143
2023-04-08T07:26:07.880Z,102.143
2023-04-08T07:27:07.901Z,102.143
2023-04-08T07:28:07.946Z,102.143
2023-04-08T07:29:08.000Z,102.143
2023-04-08T07:30:08.066Z,102.143
2023-04-08T07:31:08.246Z,102.143
2023-04-08T07:32:08.105Z,102.143
2023-04-08T07:33:08.211Z,102.143
2023-04-08T07:34:08.182Z,102
2023-04-08T07:35:08.204Z,102.143
2023-04-08T07:36:08.245Z,102
2023-04-08T07:37:08.291Z,102.214
2023-04-08T07:38:08.328Z,102.214
2023-04-08T07:39:08.361Z,102.143
2023-04-08T07:40:08.406Z,102.071
2023-04-08T07:41:08.440Z,102.143
2023-04-08T07:42:08.478Z,102.143
2023-04-08T07:43:08.508Z,102.214
2023-04-08T07:44:08.549Z,102.214
2023-04-08T07:45:08.587Z,102.143
2023-04-08T07:46:08.661Z,102.143
2023-04-08T07:47:08.661Z,102.071
2023-04-08T07:48:08.704Z,102.071
2023-04-08T07:49:08.763Z,102.071
2023-04-08T07:50:08.784Z,102.071
2023-04-08T07:51:10.919Z,102.286
2023-04-08T07:52:08.845Z,102.143
2023-04-08T07:53:08.891Z,102.143
2023-04-08T07:54:08.925Z,102.143
2023-04-08T07:55:08.968Z,102.143
2023-04-08T07:56:09.010Z,102
2023-04-08T07:57:09.033Z,101.929
2023-04-08T07:58:09.062Z,102.071
2023-04-08T07:59:09.105Z,102.214
2023-04-08T08:00:09.149Z,102.071
2023-04-08T08:01:09.198Z,102.071
2023-04-08T08:02:09.295Z,102.143
2023-04-08T08:03:09.343Z,102.071
2023-04-08T08:04:09.457Z,102.286
2023-04-08T08:05:09.355Z,102.071
2023-04-08T08:06:09.383Z,102.071
2023-04-08T08:07:09.425Z,102.071
2023-04-08T08:08:09.458Z,102.214
2023-04-08T08:09:09.503Z,102.071
2023-04-08T08:10:09.543Z,102.071
2023-04-08T08:11:09.592Z,102.071
2023-04-08T08:12:09.615Z,102.071
2023-04-08T08:13:09.663Z,102.286
2023-04-08T08:14:09.690Z,102.071
2023-04-08T08:15:09.730Z,102
2023-04-08T08:16:09.795Z,102.214
2023-04-08T08:17:09.813Z,102.143
2023-04-08T08:18:09.937Z,102.143
2023-04-08T08:19:09.884Z,102.214
2023-04-08T08:20:09.920Z,102
2023-04-08T08:21:09.973Z,102.214
2023-04-08T08:22:10.004Z,102.143
2023-04-08T08:23:10.051Z,102
2023-04-08T08:24:10.091Z,102.143
2023-04-08T08:25:10.128Z,102.143
2023-04-08T08:26:10.313Z,102.214
2023-04-08T08:27:10.200Z,102
2023-04-08T08:28:10.239Z,102.143
2023-04-08T08:29:10.260Z,102.071
2023-04-08T08:30:10.300Z,102.071
2023-04-08T08:31:10.369Z,102.071
2023-04-08T08:32:10.385Z,102.214
2023-04-08T08:33:10.443Z,102.071
2023-04-08T08:34:10.451Z,102.214
2023-04-08T08:35:10.487Z,102.071
2023-04-08T08:36:10.550Z,102.286
2023-04-08T08:37:10.585Z,102
2023-04-08T08:38:10.598Z,102.143
2023-04-08T08:39:10.635Z,102.071
2023-04-08T08:40:10.673Z,102.071
2023-04-08T08:41:10.718Z,102.143
2023-04-08T08:42:10.757Z,102.214
2023-04-08T08:43:10.785Z,102.214
2023-04-08T08:44:10.822Z,102.214
2023-04-08T08:45:10.858Z,102.071
2023-04-08T08:46:10.950Z,102.071
2023-04-08T08:47:10.928Z,102.071
2023-04-08T08:48:10.974Z,102.071
2023-04-08T08:49:11.008Z,102.214
2023-04-08T08:50:11.043Z,102.071
2023-04-08T08:51:11.085Z,102.071
2023-04-08T08:52:11.123Z,102.214
2023-04-08T08:53:11.164Z,102.071
2023-04-08T08:54:11.199Z,102.071
2023-04-08T08:55:27.025Z,102.214
2023-04-08T08:56:17.229Z,102.214
2023-04-08T08:57:11.318Z,102.214
2023-04-08T08:58:11.356Z,102.071
2023-04-08T08:59:11.396Z,102
2023-04-08T09:00:11.428Z,102.214
2023-04-08T09:01:11.470Z,102.071
2023-04-08T09:02:11.570Z,102.214
2023-04-08T09:03:11.722Z,102.071
2023-04-08T09:04:11.783Z,102.071
2023-04-08T09:05:11.743Z,102.071
2023-04-08T09:06:12.806Z,102.071
2023-04-08T09:07:11.712Z,102.071
2023-04-08T09:08:11.732Z,102.214
2023-04-08T09:09:11.762Z,102.071
2023-04-08T09:10:11.819Z,102.071
2023-04-08T09:11:11.860Z,102.071
2023-04-08T09:12:11.896Z,102.071
2023-04-08T09:13:11.927Z,102
2023-04-08T09:14:11.953Z,102.143
2023-04-08T09:15:11.990Z,102
2023-04-08T09:16:12.079Z,102.143
2023-04-08T09:17:12.071Z,102.071
2023-04-08T09:18:12.101Z,102.143
2023-04-08T09:19:12.145Z,102.214
2023-04-08T09:20:12.234Z,102.071
2023-04-08T09:21:12.229Z,102
2023-04-08T09:22:12.262Z,102.071
2023-04-08T09:23:12.309Z,102.071
2023-04-08T09:24:12.343Z,102.286
2023-04-08T09:25:12.379Z,102.071
2023-04-08T09:26:12.433Z,102.071
2023-04-08T09:27:12.452Z,102
2023-04-08T09:28:12.492Z,102.071
2023-04-08T09:29:25.551Z,102.143
2023-04-08T09:30:12.562Z,102.214
2023-04-08T09:31:12.610Z,102.143
2023-04-08T09:32:12.636Z,102
2023-04-08T09:33:12.662Z,102.143
2023-04-08T09:34:12.701Z,102.143
2023-04-08T09:35:12.746Z,102.214
2023-04-08T09:36:12.814Z,102.214
2023-04-08T09:37:12.831Z,102.143
2023-04-08T09:38:12.862Z,102.214
2023-04-08T09:39:12.897Z,102.071
2023-04-08T09:40:14.192Z,102.143
2023-04-08T09:41:12.980Z,102.214
2023-04-08T09:42:13.058Z,102.071
2023-04-08T09:43:13.045Z,102.357
2023-04-08T09:44:13.081Z,102.214
2023-04-08T09:45:13.126Z,102.071
2023-04-08T09:46:13.210Z,102.214
2023-04-08T09:47:13.221Z,102.143
2023-04-08T09:48:15.744Z,102.071
2023-04-08T09:49:13.288Z,102.214
2023-04-08T09:50:13.334Z,102.286
2023-04-08T09:51:13.370Z,102.286
2023-04-08T09:52:13.407Z,102.071
2023-04-08T09:53:13.442Z,102.214
2023-04-08T09:54:13.474Z,102.214
2023-04-08T09:55:13.529Z,102.214
2023-04-08T09:56:13.561Z,102.071
2023-04-08T09:57:13.597Z,102.071
2023-04-08T09:58:13.635Z,102.286
2023-04-08T09:59:13.681Z,102.143
2023-04-08T10:00:13.721Z,102.143
2023-04-08T10:01:13.787Z,102.214
2023-04-08T10:02:13.848Z,102.214
2023-04-08T10:03:14.050Z,102.357
2023-04-08T10:04:14.023Z,102.286
2023-04-08T10:05:14.109Z,102.071
2023-04-08T10:06:13.928Z,102.214
2023-04-08T10:07:13.972Z,102.071
2023-04-08T10:08:14.006Z,102
2023-04-08T10:09:14.057Z,102.286
2023-04-08T10:10:14.099Z,102.214
2023-04-08T10:11:14.124Z,102.143
2023-04-08T10:12:14.165Z,102.214
2023-04-08T10:13:14.200Z,102.143
2023-04-08T10:14:14.233Z,102.143
2023-04-08T10:15:14.276Z,102.286
2023-04-08T10:16:14.320Z,102.286
2023-04-08T10:17:14.341Z,102.214
2023-04-08T10:18:14.391Z,102.214
2023-04-08T10:19:14.439Z,102.143
2023-04-08T10:20:14.486Z,102.214
2023-04-08T10:21:14.513Z,102.286
2023-04-08T10:22:14.551Z,102.143
2023-04-08T10:23:14.592Z,102.143
2023-04-08T10:24:14.629Z,102.071
2023-04-08T10:25:14.667Z,102.214
2023-04-08T10:26:14.698Z,102.214
2023-04-08T10:27:14.728Z,102.214
2023-04-08T10:28:14.770Z,102.214
2023-04-08T10:29:14.808Z,102.214
2023-04-08T10:30:14.852Z,102.214
2023-04-08T10:31:14.889Z,102.143
2023-04-08T10:32:14.931Z,102.214
2023-04-08T10:33:14.967Z,102.214
2023-04-08T10:34:15.028Z,102.286
2023-04-08T10:35:15.040Z,102.214
2023-04-08T10:36:15.143Z,102.143
2023-04-08T10:37:15.112Z,102.214
2023-04-08T10:38:15.143Z,102.214
2023-04-08T10:39:15.186Z,102.214
2023-04-08T10:40:15.223Z,102.286
2023-04-08T10:41:15.252Z,102.286
2023-04-08T10:42:15.288Z,102.286
2023-04-08T10:43:15.329Z,102.286
2023-04-08T10:44:15.364Z,102.214
2023-04-08T10:45:15.397Z,102.214
2023-04-08T10:46:15.507Z,102.143
2023-04-08T10:47:15.459Z,102.143
2023-04-08T10:48:15.504Z,102.071
2023-04-08T10:49:15.541Z,102.143
2023-04-08T10:50:15.691Z,102.071
2023-04-08T10:51:15.624Z,102.286
2023-04-08T10:52:15.659Z,102.071
2023-04-08T10:53:15.698Z,102.071
2023-04-08T10:54:15.731Z,102.071
2023-04-08T10:55:15.770Z,102.071
2023-04-08T10:56:15.833Z,102.214
2023-04-08T10:57:15.840Z,102.214
2023-04-08T10:58:15.882Z,102.214
2023-04-08T10:59:15.917Z,102.214
2023-04-08T11:00:16.010Z,102.214
2023-04-08T11:01:16.044Z,102.214
2023-04-08T11:02:16.355Z,102.071
2023-04-08T11:03:16.206Z,102.071
2023-04-08T11:04:16.217Z,102.429
2023-04-08T11:05:16.167Z,102.143
2023-04-08T11:06:16.192Z,102.143
2023-04-08T11:07:16.229Z,102.286
2023-04-08T11:08:16.274Z,102.214
2023-04-08T11:09:16.317Z,102.286
2023-04-08T11:10:16.356Z,102.071
2023-04-08T11:11:16.382Z,102.286
2023-04-08T11:12:16.429Z,102.143
2023-04-08T11:13:16.477Z,102.143
2023-04-08T11:14:16.512Z,102.143
2023-04-08T11:15:16.548Z,102.286
2023-04-08T11:16:18.549Z,102.286
2023-04-08T11:17:16.618Z,102.143
2023-04-08T11:18:16.678Z,102.286
2023-04-08T11:19:16.698Z,102.071
2023-04-08T11:20:16.728Z,102.143
2023-04-08T11:21:16.848Z,102.214
2023-04-08T11:22:16.798Z,102.071
2023-04-08T11:23:16.837Z,102.214
2023-04-08T11:24:17.039Z,102.071
2023-04-08T11:25:16.912Z,102.071
2023-04-08T11:26:16.964Z,102.214
2023-04-08T11:27:16.991Z,102.143
2023-04-08T11:28:17.030Z,102.143
2023-04-08T11:29:17.088Z,102.214
2023-04-08T11:30:17.113Z,102.214
2023-04-08T11:31:17.194Z,102.214
2023-04-08T11:32:17.200Z,102.214
2023-04-08T11:33:17.222Z,102.214
2023-04-08T11:34:17.268Z,102.214
2023-04-08T11:35:17.305Z,102.214
2023-04-08T11:36:17.336Z,102.214
2023-04-08T11:37:17.398Z,102.143
2023-04-08T11:38:17.424Z,102.214
2023-04-08T11:39:17.463Z,102.143
2023-04-08T11:40:17.511Z,102.214
2023-04-08T11:41:17.577Z,102.214
2023-04-08T11:42:17.581Z,102.214
2023-04-08T11:43:17.607Z,102.143
2023-04-08T11:44:17.649Z,102.214
2023-04-08T11:45:17.676Z,102.214
2023-04-08T11:46:17.779Z,102.214
2023-04-08T11:47:17.763Z,102.214
2023-04-08T11:48:17.794Z,102.286
2023-04-08T11:49:17.827Z,102.214
2023-04-08T11:50:17.875Z,102.143
2023-04-08T11:51:17.907Z,102.214
2023-04-08T11:52:17.941Z,102.214
2023-04-08T11:53:17.983Z,102.214
2023-04-08T11:54:18.016Z,102.214
2023-04-08T11:55:18.049Z,102.286
2023-04-08T11:56:18.095Z,102.286
2023-04-08T11:57:18.132Z,102.214
2023-04-08T11:58:18.178Z,102.214
2023-04-08T11:59:18.206Z,102.214
2023-04-08T12:00:18.243Z,102.214
2023-04-08T12:01:18.276Z,102.214
2023-04-08T12:02:18.434Z,102.214
2023-04-08T12:03:18.511Z,102.214
2023-04-08T12:04:18.561Z,102.214
2023-04-08T12:05:18.422Z,102.214
2023-04-08T12:06:18.467Z,102.286
2023-04-08T12:07:18.505Z,102.286
2023-04-08T12:08:18.548Z,102.286
2023-04-08T12:09:18.589Z,102.214
2023-04-08T12:10:18.642Z,102.286
2023-04-08T12:11:20.135Z,102.286
2023-04-08T12:12:18.729Z,102.143
2023-04-08T12:13:18.745Z,102.143
2023-04-08T12:14:18.777Z,102.429